sensor_id;sensor_type;location;lat;lon;timestamp;P1;durP1;ratioP1;P2;durP2;ratioP2
26806;SDS011;14380;49.910;6.792;2023-06-10T00:01:36;4.32;;;3.65;;
26806;SDS011;14380;49.910;6.792;2023-06-10T00:04:04;3.35;;;2.63;;
26806;SDS011;14380;49.910;6.792;2023-06-10T00:06:31;4.03;;;3.17;;
26806;SDS011;14380;49.910;6.792;2023-06-10T00:09:00;3.85;;;3.20;;
26806;SDS011;14380;49.910;6.792;2023-06-10T00:11:40;4.05;;;3.22;;
26806;SDS011;14380;49.910;6.792;2023-06-10T00:14:08;6.50;;;3.33;;
26806;SDS011;14380;49.910;6.792;2023-06-10T00:16:35;5.85;;;3.17;;
26806;SDS011;14380;49.910;6.792;2023-06-10T00:19:11;4.22;;;3.38;;
26806;SDS011;14380;49.910;6.792;2023-06-10T00:21:39;4.25;;;3.13;;
26806;SDS011;14380;49.910;6.792;2023-06-10T00:24:06;3.92;;;3.00;;
26806;SDS011;14380;49.910;6.792;2023-06-10T00:26:37;6.22;;;3.20;;
26806;SDS011;14380;49.910;6.792;2023-06-10T00:29:04;4.10;;;3.25;;
26806;SDS011;14380;49.910;6.792;2023-06-10T00:31:30;4.15;;;3.13;;
26806;SDS011;14380;49.910;6.792;2023-06-10T00:33:57;4.72;;;3.05;;
26806;SDS011;14380;49.910;6.792;2023-06-10T00:36:25;5.05;;;3.33;;
26806;SDS011;14380;49.910;6.792;2023-06-10T00:38:52;5.38;;;3.38;;
26806;SDS011;14380;49.910;6.792;2023-06-10T00:41:19;4.15;;;3.00;;
26806;SDS011;14380;49.910;6.792;2023-06-10T00:43:46;5.22;;;2.95;;
26806;SDS011;14380;49.910;6.792;2023-06-10T00:46:13;3.45;;;2.70;;
26806;SDS011;14380;49.910;6.792;2023-06-10T00:48:41;3.50;;;2.70;;
26806;SDS011;14380;49.910;6.792;2023-06-10T00:51:09;3.72;;;3.28;;
26806;SDS011;14380;49.910;6.792;2023-06-10T00:53:39;4.38;;;3.40;;
26806;SDS011;14380;49.910;6.792;2023-06-10T00:56:06;3.35;;;3.05;;
26806;SDS011;14380;49.910;6.792;2023-06-10T00:58:33;4.10;;;3.15;;
26806;SDS011;14380;49.910;6.792;2023-06-10T01:01:01;3.50;;;2.78;;
26806;SDS011;14380;49.910;6.792;2023-06-10T01:03:29;3.92;;;3.33;;
26806;SDS011;14380;49.910;6.792;2023-06-10T01:05:57;4.32;;;3.05;;
26806;SDS011;14380;49.910;6.792;2023-06-10T01:08:32;5.05;;;3.25;;
26806;SDS011;14380;49.910;6.792;2023-06-10T01:11:03;4.45;;;3.35;;
26806;SDS011;14380;49.910;6.792;2023-06-10T01:13:35;5.55;;;3.20;;
26806;SDS011;14380;49.910;6.792;2023-06-10T01:16:03;4.18;;;3.30;;
26806;SDS011;14380;49.910;6.792;2023-06-10T01:18:31;3.60;;;3.15;;
26806;SDS011;14380;49.910;6.792;2023-06-10T01:20:58;6.40;;;3.35;;
26806;SDS011;14380;49.910;6.792;2023-06-10T01:23:26;3.65;;;3.28;;
26806;SDS011;14380;49.910;6.792;2023-06-10T01:25:55;5.32;;;3.33;;
26806;SDS011;14380;49.910;6.792;2023-06-10T01:28:28;3.70;;;3.13;;
26806;SDS011;14380;49.910;6.792;2023-06-10T01:31:04;5.72;;;3.40;;
26806;SDS011;14380;49.910;6.792;2023-06-10T01:33:37;4.10;;;3.10;;
26806;SDS011;14380;49.910;6.792;2023-06-10T01:36:09;4.60;;;3.15;;
26806;SDS011;14380;49.910;6.792;2023-06-10T01:38:39;3.80;;;3.50;;
26806;SDS011;14380;49.910;6.792;2023-06-10T01:41:09;6.00;;;2.83;;
26806;SDS011;14380;49.910;6.792;2023-06-10T01:43:37;4.30;;;3.13;;
26806;SDS011;14380;49.910;6.792;2023-06-10T01:46:04;5.35;;;3.28;;
26806;SDS011;14380;49.910;6.792;2023-06-10T01:48:31;5.78;;;3.47;;
26806;SDS011;14380;49.910;6.792;2023-06-10T01:50:58;3.05;;;2.75;;
26806;SDS011;14380;49.910;6.792;2023-06-10T01:53:25;4.43;;;3.67;;
26806;SDS011;14380;49.910;6.792;2023-06-10T01:55:53;5.00;;;3.33;;
26806;SDS011;14380;49.910;6.792;2023-06-10T01:58:19;6.40;;;3.15;;
26806;SDS011;14380;49.910;6.792;2023-06-10T02:00:46;3.60;;;3.08;;
26806;SDS011;14380;49.910;6.792;2023-06-10T02:03:13;4.72;;;2.88;;
26806;SDS011;14380;49.910;6.792;2023-06-10T02:05:40;4.40;;;3.00;;
26806;SDS011;14380;49.910;6.792;2023-06-10T02:08:06;4.00;;;3.38;;
26806;SDS011;14380;49.910;6.792;2023-06-10T02:10:33;4.38;;;3.70;;
26806;SDS011;14380;49.910;6.792;2023-06-10T02:13:01;4.05;;;3.28;;
26806;SDS011;14380;49.910;6.792;2023-06-10T02:15:27;4.20;;;3.05;;
26806;SDS011;14380;49.910;6.792;2023-06-10T02:17:54;3.80;;;3.42;;
26806;SDS011;14380;49.910;6.792;2023-06-10T02:20:21;7.50;;;3.92;;
26806;SDS011;14380;49.910;6.792;2023-06-10T02:22:47;5.15;;;3.63;;
26806;SDS011;14380;49.910;6.792;2023-06-10T02:25:14;5.25;;;3.20;;
26806;SDS011;14380;49.910;6.792;2023-06-10T02:27:40;5.50;;;3.83;;
26806;SDS011;14380;49.910;6.792;2023-06-10T02:30:09;6.60;;;4.00;;
26806;SDS011;14380;49.910;6.792;2023-06-10T02:32:36;7.15;;;4.70;;
26806;SDS011;14380;49.910;6.792;2023-06-10T02:35:03;3.92;;;3.28;;
26806;SDS011;14380;49.910;6.792;2023-06-10T02:37:30;4.40;;;3.50;;
26806;SDS011;14380;49.910;6.792;2023-06-10T02:39:57;5.15;;;3.83;;
26806;SDS011;14380;49.910;6.792;2023-06-10T02:42:23;4.28;;;3.20;;
26806;SDS011;14380;49.910;6.792;2023-06-10T02:44:50;6.78;;;3.60;;
26806;SDS011;14380;49.910;6.792;2023-06-10T02:47:20;3.80;;;3.17;;
26806;SDS011;14380;49.910;6.792;2023-06-10T02:49:47;5.30;;;3.45;;
26806;SDS011;14380;49.910;6.792;2023-06-10T02:52:13;5.32;;;3.63;;
26806;SDS011;14380;49.910;6.792;2023-06-10T02:54:40;6.00;;;4.03;;
26806;SDS011;14380;49.910;6.792;2023-06-10T02:57:06;6.25;;;3.33;;
26806;SDS011;14380;49.910;6.792;2023-06-10T02:59:33;5.90;;;3.78;;
26806;SDS011;14380;49.910;6.792;2023-06-10T03:02:00;5.30;;;3.65;;
26806;SDS011;14380;49.910;6.792;2023-06-10T03:04:28;4.70;;;3.67;;
26806;SDS011;14380;49.910;6.792;2023-06-10T03:06:55;6.47;;;3.85;;
26806;SDS011;14380;49.910;6.792;2023-06-10T03:09:22;4.53;;;3.95;;
26806;SDS011;14380;49.910;6.792;2023-06-10T03:11:48;3.95;;;3.20;;
26806;SDS011;14380;49.910;6.792;2023-06-10T03:14:15;5.25;;;3.30;;
26806;SDS011;14380;49.910;6.792;2023-06-10T03:16:42;4.25;;;3.65;;
26806;SDS011;14380;49.910;6.792;2023-06-10T03:19:09;6.10;;;4.15;;
26806;SDS011;14380;49.910;6.792;2023-06-10T03:21:37;4.03;;;3.05;;
26806;SDS011;14380;49.910;6.792;2023-06-10T03:24:04;5.43;;;3.40;;
26806;SDS011;14380;49.910;6.792;2023-06-10T03:26:31;6.78;;;3.22;;
26806;SDS011;14380;49.910;6.792;2023-06-10T03:28:58;3.55;;;3.05;;
26806;SDS011;14380;49.910;6.792;2023-06-10T03:31:25;8.65;;;3.63;;
26806;SDS011;14380;49.910;6.792;2023-06-10T03:33:51;4.93;;;3.47;;
26806;SDS011;14380;49.910;6.792;2023-06-10T03:36:18;4.68;;;3.53;;
26806;SDS011;14380;49.910;6.792;2023-06-10T03:38:46;6.40;;;3.80;;
26806;SDS011;14380;49.910;6.792;2023-06-10T03:41:12;4.53;;;3.70;;
26806;SDS011;14380;49.910;6.792;2023-06-10T03:43:40;5.53;;;3.90;;
26806;SDS011;14380;49.910;6.792;2023-06-10T03:46:07;4.45;;;3.47;;
26806;SDS011;14380;49.910;6.792;2023-06-10T03:48:33;8.27;;;3.53;;
26806;SDS011;14380;49.910;6.792;2023-06-10T03:51:00;4.90;;;3.70;;
26806;SDS011;14380;49.910;6.792;2023-06-10T03:53:26;6.03;;;4.25;;
26806;SDS011;14380;49.910;6.792;2023-06-10T03:55:54;5.13;;;3.45;;
26806;SDS011;14380;49.910;6.792;2023-06-10T03:58:22;5.50;;;3.75;;
26806;SDS011;14380;49.910;6.792;2023-06-10T04:00:49;5.43;;;3.65;;
26806;SDS011;14380;49.910;6.792;2023-06-10T04:03:15;4.68;;;3.75;;
26806;SDS011;14380;49.910;6.792;2023-06-10T04:05:42;4.43;;;3.53;;
26806;SDS011;14380;49.910;6.792;2023-06-10T04:08:08;5.93;;;3.63;;
26806;SDS011;14380;49.910;6.792;2023-06-10T04:10:35;6.80;;;3.60;;
26806;SDS011;14380;49.910;6.792;2023-06-10T04:13:03;4.75;;;3.78;;
26806;SDS011;14380;49.910;6.792;2023-06-10T04:15:30;6.60;;;3.03;;
26806;SDS011;14380;49.910;6.792;2023-06-10T04:17:58;3.75;;;3.13;;
26806;SDS011;14380;49.910;6.792;2023-06-10T04:20:25;3.83;;;3.40;;
26806;SDS011;14380;49.910;6.792;2023-06-10T04:22:52;4.88;;;3.00;;
26806;SDS011;14380;49.910;6.792;2023-06-10T04:25:18;4.70;;;3.40;;
26806;SDS011;14380;49.910;6.792;2023-06-10T04:27:45;5.63;;;3.95;;
26806;SDS011;14380;49.910;6.792;2023-06-10T04:30:14;5.28;;;3.28;;
26806;SDS011;14380;49.910;6.792;2023-06-10T04:32:41;8.68;;;3.42;;
26806;SDS011;14380;49.910;6.792;2023-06-10T04:35:08;4.97;;;3.28;;
26806;SDS011;14380;49.910;6.792;2023-06-10T04:37:37;3.78;;;3.30;;
26806;SDS011;14380;49.910;6.792;2023-06-10T04:40:05;3.63;;;3.08;;
26806;SDS011;14380;49.910;6.792;2023-06-10T04:42:32;4.18;;;3.30;;
26806;SDS011;14380;49.910;6.792;2023-06-10T04:44:59;5.65;;;3.42;;
26806;SDS011;14380;49.910;6.792;2023-06-10T04:47:26;4.47;;;3.30;;
26806;SDS011;14380;49.910;6.792;2023-06-10T04:49:53;4.68;;;3.40;;
26806;SDS011;14380;49.910;6.792;2023-06-10T04:52:20;5.57;;;3.40;;
26806;SDS011;14380;49.910;6.792;2023-06-10T04:54:47;3.78;;;2.67;;
26806;SDS011;14380;49.910;6.792;2023-06-10T04:57:13;5.75;;;3.30;;
26806;SDS011;14380;49.910;6.792;2023-06-10T04:59:40;4.35;;;3.22;;
26806;SDS011;14380;49.910;6.792;2023-06-10T05:02:06;4.03;;;3.08;;
26806;SDS011;14380;49.910;6.792;2023-06-10T05:04:34;5.65;;;3.78;;
26806;SDS011;14380;49.910;6.792;2023-06-10T05:07:02;4.15;;;3.35;;
26806;SDS011;14380;49.910;6.792;2023-06-10T05:09:29;4.03;;;2.95;;
26806;SDS011;14380;49.910;6.792;2023-06-10T05:11:56;3.47;;;2.95;;
26806;SDS011;14380;49.910;6.792;2023-06-10T05:14:23;4.28;;;3.33;;
26806;SDS011;14380;49.910;6.792;2023-06-10T05:16:49;4.32;;;3.45;;
26806;SDS011;14380;49.910;6.792;2023-06-10T05:19:16;4.75;;;3.55;;
26806;SDS011;14380;49.910;6.792;2023-06-10T05:21:45;4.15;;;2.72;;
26806;SDS011;14380;49.910;6.792;2023-06-10T05:24:11;3.03;;;2.75;;
26806;SDS011;14380;49.910;6.792;2023-06-10T05:26:38;3.90;;;3.45;;
26806;SDS011;14380;49.910;6.792;2023-06-10T05:29:06;3.78;;;3.35;;
26806;SDS011;14380;49.910;6.792;2023-06-10T05:31:34;4.20;;;3.00;;
26806;SDS011;14380;49.910;6.792;2023-06-10T05:34:00;4.63;;;3.10;;
26806;SDS011;14380;49.910;6.792;2023-06-10T05:36:27;3.45;;;3.15;;
26806;SDS011;14380;49.910;6.792;2023-06-10T05:38:55;6.68;;;3.53;;
26806;SDS011;14380;49.910;6.792;2023-06-10T05:41:21;3.83;;;3.08;;
26806;SDS011;14380;49.910;6.792;2023-06-10T05:43:48;4.25;;;3.38;;
26806;SDS011;14380;49.910;6.792;2023-06-10T05:46:14;3.40;;;3.08;;
26806;SDS011;14380;49.910;6.792;2023-06-10T05:48:41;5.30;;;3.13;;
26806;SDS011;14380;49.910;6.792;2023-06-10T05:51:08;4.75;;;2.85;;
26806;SDS011;14380;49.910;6.792;2023-06-10T05:53:35;5.90;;;2.95;;
26806;SDS011;14380;49.910;6.792;2023-06-10T05:56:03;4.45;;;3.20;;
26806;SDS011;14380;49.910;6.792;2023-06-10T05:58:30;6.50;;;4.03;;
26806;SDS011;14380;49.910;6.792;2023-06-10T06:00:56;4.03;;;2.92;;
26806;SDS011;14380;49.910;6.792;2023-06-10T06:03:23;5.38;;;3.17;;
26806;SDS011;14380;49.910;6.792;2023-06-10T06:05:50;4.75;;;3.30;;
26806;SDS011;14380;49.910;6.792;2023-06-10T06:08:16;2.45;;;2.15;;
26806;SDS011;14380;49.910;6.792;2023-06-10T06:10:44;5.53;;;2.90;;
26806;SDS011;14380;49.910;6.792;2023-06-10T06:13:12;2.63;;;2.38;;
26806;SDS011;14380;49.910;6.792;2023-06-10T06:15:38;4.03;;;2.78;;
26806;SDS011;14380;49.910;6.792;2023-06-10T06:18:05;5.47;;;3.00;;
26806;SDS011;14380;49.910;6.792;2023-06-10T06:20:32;3.85;;;2.83;;
26806;SDS011;14380;49.910;6.792;2023-06-10T06:22:58;3.15;;;2.85;;
26806;SDS011;14380;49.910;6.792;2023-06-10T06:25:25;2.60;;;2.33;;
26806;SDS011;14380;49.910;6.792;2023-06-10T06:27:52;4.13;;;3.25;;
26806;SDS011;14380;49.910;6.792;2023-06-10T06:30:20;2.80;;;2.60;;
26806;SDS011;14380;49.910;6.792;2023-06-10T06:32:46;4.38;;;3.33;;
26806;SDS011;14380;49.910;6.792;2023-06-10T06:35:13;3.38;;;2.55;;
26806;SDS011;14380;49.910;6.792;2023-06-10T06:37:40;5.70;;;2.95;;
26806;SDS011;14380;49.910;6.792;2023-06-10T06:40:07;4.75;;;2.80;;
26806;SDS011;14380;49.910;6.792;2023-06-10T06:42:34;3.17;;;2.72;;
26806;SDS011;14380;49.910;6.792;2023-06-10T06:45:00;5.38;;;3.25;;
26806;SDS011;14380;49.910;6.792;2023-06-10T06:47:28;3.92;;;2.80;;
26806;SDS011;14380;49.910;6.792;2023-06-10T06:49:55;3.53;;;2.78;;
26806;SDS011;14380;49.910;6.792;2023-06-10T06:52:22;3.85;;;2.65;;
26806;SDS011;14380;49.910;6.792;2023-06-10T06:54:49;4.32;;;2.80;;
26806;SDS011;14380;49.910;6.792;2023-06-10T06:57:15;6.18;;;3.05;;
26806;SDS011;14380;49.910;6.792;2023-06-10T06:59:42;3.75;;;2.65;;
26806;SDS011;14380;49.910;6.792;2023-06-10T07:02:08;3.13;;;2.60;;
26806;SDS011;14380;49.910;6.792;2023-06-10T07:04:36;4.75;;;2.78;;
26806;SDS011;14380;49.910;6.792;2023-06-10T07:07:04;3.40;;;2.90;;
26806;SDS011;14380;49.910;6.792;2023-06-10T07:09:31;4.57;;;2.80;;
26806;SDS011;14380;49.910;6.792;2023-06-10T07:11:57;5.43;;;2.70;;
26806;SDS011;14380;49.910;6.792;2023-06-10T07:14:24;4.78;;;3.08;;
26806;SDS011;14380;49.910;6.792;2023-06-10T07:16:51;4.35;;;2.70;;
26806;SDS011;14380;49.910;6.792;2023-06-10T07:19:17;4.15;;;2.58;;
26806;SDS011;14380;49.910;6.792;2023-06-10T07:21:49;3.17;;;2.58;;
26806;SDS011;14380;49.910;6.792;2023-06-10T07:24:16;3.47;;;2.92;;
26806;SDS011;14380;49.910;6.792;2023-06-10T07:26:45;3.08;;;2.38;;
26806;SDS011;14380;49.910;6.792;2023-06-10T07:29:12;2.90;;;2.22;;
26806;SDS011;14380;49.910;6.792;2023-06-10T07:31:38;3.03;;;2.28;;
26806;SDS011;14380;49.910;6.792;2023-06-10T07:34:07;3.22;;;2.30;;
26806;SDS011;14380;49.910;6.792;2023-06-10T07:36:33;3.08;;;2.53;;
26806;SDS011;14380;49.910;6.792;2023-06-10T07:39:02;3.83;;;2.67;;
26806;SDS011;14380;49.910;6.792;2023-06-10T07:41:32;4.28;;;2.78;;
26806;SDS011;14380;49.910;6.792;2023-06-10T07:43:58;4.05;;;2.40;;
26806;SDS011;14380;49.910;6.792;2023-06-10T07:46:25;2.97;;;2.60;;
26806;SDS011;14380;49.910;6.792;2023-06-10T07:48:53;5.80;;;3.10;;
26806;SDS011;14380;49.910;6.792;2023-06-10T07:51:20;2.90;;;2.60;;
26806;SDS011;14380;49.910;6.792;2023-06-10T07:53:47;8.02;;;2.78;;
26806;SDS011;14380;49.910;6.792;2023-06-10T07:56:16;4.18;;;3.03;;
26806;SDS011;14380;49.910;6.792;2023-06-10T07:58:43;4.00;;;2.75;;
26806;SDS011;14380;49.910;6.792;2023-06-10T08:01:09;2.95;;;2.65;;
26806;SDS011;14380;49.910;6.792;2023-06-10T08:03:36;3.10;;;2.33;;
26806;SDS011;14380;49.910;6.792;2023-06-10T08:06:03;3.20;;;2.38;;
26806;SDS011;14380;49.910;6.792;2023-06-10T08:08:30;3.30;;;2.33;;
26806;SDS011;14380;49.910;6.792;2023-06-10T08:10:57;3.75;;;3.05;;
26806;SDS011;14380;49.910;6.792;2023-06-10T08:13:27;2.55;;;2.30;;
26806;SDS011;14380;49.910;6.792;2023-06-10T08:15:53;3.28;;;2.95;;
26806;SDS011;14380;49.910;6.792;2023-06-10T08:18:20;3.83;;;2.50;;
26806;SDS011;14380;49.910;6.792;2023-06-10T08:20:47;3.00;;;2.58;;
26806;SDS011;14380;49.910;6.792;2023-06-10T08:23:14;4.82;;;2.83;;
26806;SDS011;14380;49.910;6.792;2023-06-10T08:25:41;3.75;;;2.67;;
26806;SDS011;14380;49.910;6.792;2023-06-10T08:28:07;3.78;;;2.47;;
26806;SDS011;14380;49.910;6.792;2023-06-10T08:30:36;2.50;;;2.30;;
26806;SDS011;14380;49.910;6.792;2023-06-10T08:33:03;3.00;;;2.13;;
26806;SDS011;14380;49.910;6.792;2023-06-10T08:35:30;3.85;;;2.67;;
26806;SDS011;14380;49.910;6.792;2023-06-10T08:37:57;3.67;;;2.20;;
26806;SDS011;14380;49.910;6.792;2023-06-10T08:40:24;2.58;;;2.28;;
26806;SDS011;14380;49.910;6.792;2023-06-10T08:42:53;3.67;;;2.60;;
26806;SDS011;14380;49.910;6.792;2023-06-10T08:45:27;3.15;;;2.55;;
26806;SDS011;14380;49.910;6.792;2023-06-10T08:47:58;3.45;;;2.45;;
26806;SDS011;14380;49.910;6.792;2023-06-10T08:50:26;3.13;;;2.47;;
26806;SDS011;14380;49.910;6.792;2023-06-10T08:52:56;6.85;;;3.50;;
26806;SDS011;14380;49.910;6.792;2023-06-10T08:55:26;3.10;;;2.65;;
26806;SDS011;14380;49.910;6.792;2023-06-10T08:57:55;2.58;;;2.38;;
26806;SDS011;14380;49.910;6.792;2023-06-10T09:00:22;3.70;;;2.40;;
26806;SDS011;14380;49.910;6.792;2023-06-10T09:02:49;2.40;;;2.00;;
26806;SDS011;14380;49.910;6.792;2023-06-10T09:05:19;3.45;;;2.63;;
26806;SDS011;14380;49.910;6.792;2023-06-10T09:07:46;4.72;;;2.50;;
26806;SDS011;14380;49.910;6.792;2023-06-10T09:10:15;3.22;;;2.65;;
26806;SDS011;14380;49.910;6.792;2023-06-10T09:12:42;2.92;;;2.20;;
26806;SDS011;14380;49.910;6.792;2023-06-10T09:15:09;2.95;;;2.50;;
26806;SDS011;14380;49.910;6.792;2023-06-10T09:17:37;3.97;;;2.42;;
26806;SDS011;14380;49.910;6.792;2023-06-10T09:20:06;2.33;;;1.92;;
26806;SDS011;14380;49.910;6.792;2023-06-10T09:22:35;2.58;;;2.22;;
26806;SDS011;14380;49.910;6.792;2023-06-10T09:25:02;2.90;;;2.15;;
26806;SDS011;14380;49.910;6.792;2023-06-10T09:27:30;3.05;;;2.20;;
26806;SDS011;14380;49.910;6.792;2023-06-10T09:29:57;2.78;;;2.47;;
26806;SDS011;14380;49.910;6.792;2023-06-10T09:32:24;4.32;;;2.33;;
26806;SDS011;14380;49.910;6.792;2023-06-10T09:34:52;2.95;;;2.17;;
26806;SDS011;14380;49.910;6.792;2023-06-10T09:37:19;3.97;;;2.58;;
26806;SDS011;14380;49.910;6.792;2023-06-10T09:40:01;2.10;;;1.90;;
26806;SDS011;14380;49.910;6.792;2023-06-10T09:42:31;2.63;;;2.42;;
26806;SDS011;14380;49.910;6.792;2023-06-10T09:44:59;2.58;;;2.00;;
26806;SDS011;14380;49.910;6.792;2023-06-10T09:47:26;2.85;;;2.30;;
26806;SDS011;14380;49.910;6.792;2023-06-10T09:49:53;4.63;;;2.78;;
26806;SDS011;14380;49.910;6.792;2023-06-10T09:52:21;3.08;;;2.65;;
26806;SDS011;14380;49.910;6.792;2023-06-10T09:54:48;3.20;;;2.45;;
26806;SDS011;14380;49.910;6.792;2023-06-10T09:57:19;2.60;;;2.35;;
26806;SDS011;14380;49.910;6.792;2023-06-10T09:59:47;3.10;;;2.15;;
26806;SDS011;14380;49.910;6.792;2023-06-10T10:02:19;4.75;;;2.35;;
26806;SDS011;14380;49.910;6.792;2023-06-10T10:04:45;2.92;;;2.05;;
26806;SDS011;14380;49.910;6.792;2023-06-10T10:07:13;3.70;;;2.33;;
26806;SDS011;14380;49.910;6.792;2023-06-10T10:09:41;2.70;;;2.25;;
26806;SDS011;14380;49.910;6.792;2023-06-10T10:12:09;3.75;;;2.70;;
26806;SDS011;14380;49.910;6.792;2023-06-10T10:14:39;3.35;;;2.15;;
26806;SDS011;14380;49.910;6.792;2023-06-10T10:17:14;1.90;;;1.73;;
26806;SDS011;14380;49.910;6.792;2023-06-10T10:19:43;2.10;;;1.90;;
26806;SDS011;14380;49.910;6.792;2023-06-10T10:22:15;2.08;;;1.92;;
26806;SDS011;14380;49.910;6.792;2023-06-10T10:24:46;4.40;;;2.53;;
26806;SDS011;14380;49.910;6.792;2023-06-10T10:27:17;3.08;;;2.03;;
26806;SDS011;14380;49.910;6.792;2023-06-10T10:29:49;2.15;;;1.60;;
26806;SDS011;14380;49.910;6.792;2023-06-10T10:32:18;2.90;;;2.00;;
26806;SDS011;14380;49.910;6.792;2023-06-10T10:34:53;2.72;;;2.28;;
26806;SDS011;14380;49.910;6.792;2023-06-10T10:37:25;2.55;;;1.80;;
26806;SDS011;14380;49.910;6.792;2023-06-10T10:39:52;2.42;;;1.65;;
26806;SDS011;14380;49.910;6.792;2023-06-10T10:42:20;1.85;;;1.70;;
26806;SDS011;14380;49.910;6.792;2023-06-10T10:44:48;2.03;;;1.83;;
26806;SDS011;14380;49.910;6.792;2023-06-10T10:47:16;1.80;;;1.70;;
26806;SDS011;14380;49.910;6.792;2023-06-10T10:49:48;2.50;;;1.55;;
26806;SDS011;14380;49.910;6.792;2023-06-10T10:52:17;1.95;;;1.75;;
26806;SDS011;14380;49.910;6.792;2023-06-10T10:54:45;3.90;;;1.90;;
26806;SDS011;14380;49.910;6.792;2023-06-10T10:57:13;1.75;;;1.40;;
26806;SDS011;14380;49.910;6.792;2023-06-10T10:59:44;2.17;;;1.52;;
26806;SDS011;14380;49.910;6.792;2023-06-10T11:02:16;2.97;;;1.92;;
26806;SDS011;14380;49.910;6.792;2023-06-10T11:04:47;1.92;;;1.58;;
26806;SDS011;14380;49.910;6.792;2023-06-10T11:07:14;1.70;;;1.42;;
26806;SDS011;14380;49.910;6.792;2023-06-10T11:09:57;2.90;;;1.50;;
26806;SDS011;14380;49.910;6.792;2023-06-10T11:12:25;2.83;;;1.98;;
26806;SDS011;14380;49.910;6.792;2023-06-10T11:14:54;1.67;;;1.50;;
26806;SDS011;14380;49.910;6.792;2023-06-10T11:17:22;2.03;;;1.60;;
26806;SDS011;14380;49.910;6.792;2023-06-10T11:19:49;1.40;;;1.30;;
26806;SDS011;14380;49.910;6.792;2023-06-10T11:22:17;2.97;;;2.10;;
26806;SDS011;14380;49.910;6.792;2023-06-10T11:24:47;3.50;;;1.33;;
26806;SDS011;14380;49.910;6.792;2023-06-10T11:27:15;1.92;;;1.73;;
26806;SDS011;14380;49.910;6.792;2023-06-10T11:29:57;1.77;;;1.60;;
26806;SDS011;14380;49.910;6.792;2023-06-10T11:32:29;1.67;;;1.58;;
26806;SDS011;14380;49.910;6.792;2023-06-10T11:34:57;1.50;;;1.20;;
26806;SDS011;14380;49.910;6.792;2023-06-10T11:37:24;1.42;;;1.23;;
26806;SDS011;14380;49.910;6.792;2023-06-10T11:39:51;3.13;;;1.25;;
26806;SDS011;14380;49.910;6.792;2023-06-10T11:42:21;1.60;;;1.50;;
26806;SDS011;14380;49.910;6.792;2023-06-10T11:44:49;1.65;;;1.10;;
26806;SDS011;14380;49.910;6.792;2023-06-10T11:47:16;1.40;;;1.30;;
26806;SDS011;14380;49.910;6.792;2023-06-10T11:49:44;1.35;;;1.20;;
26806;SDS011;14380;49.910;6.792;2023-06-10T11:52:10;3.15;;;1.40;;
26806;SDS011;14380;49.910;6.792;2023-06-10T11:54:37;2.47;;;1.40;;
26806;SDS011;14380;49.910;6.792;2023-06-10T11:57:04;2.92;;;1.40;;
26806;SDS011;14380;49.910;6.792;2023-06-10T11:59:33;2.03;;;1.35;;
26806;SDS011;14380;49.910;6.792;2023-06-10T12:02:00;1.85;;;1.50;;
26806;SDS011;14380;49.910;6.792;2023-06-10T12:04:28;1.85;;;1.30;;
26806;SDS011;14380;49.910;6.792;2023-06-10T12:06:56;1.83;;;1.17;;
26806;SDS011;14380;49.910;6.792;2023-06-10T12:09:23;1.30;;;1.05;;
26806;SDS011;14380;49.910;6.792;2023-06-10T12:11:52;1.17;;;1.02;;
26806;SDS011;14380;49.910;6.792;2023-06-10T12:17:21;2.08;;;1.67;;
26806;SDS011;14380;49.910;6.792;2023-06-10T12:19:49;1.90;;;1.52;;
26806;SDS011;14380;49.910;6.792;2023-06-10T12:22:18;2.28;;;1.85;;
26806;SDS011;14380;49.910;6.792;2023-06-10T12:24:45;2.28;;;1.50;;
26806;SDS011;14380;49.910;6.792;2023-06-10T12:27:24;1.77;;;1.55;;
26806;SDS011;14380;49.910;6.792;2023-06-10T12:29:51;1.60;;;1.50;;
26806;SDS011;14380;49.910;6.792;2023-06-10T12:32:20;2.00;;;1.55;;
26806;SDS011;14380;49.910;6.792;2023-06-10T12:34:50;2.28;;;1.40;;
26806;SDS011;14380;49.910;6.792;2023-06-10T12:37:29;1.35;;;1.25;;
26806;SDS011;14380;49.910;6.792;2023-06-10T12:39:59;2.08;;;1.88;;
26806;SDS011;14380;49.910;6.792;2023-06-10T12:42:27;1.52;;;1.15;;
26806;SDS011;14380;49.910;6.792;2023-06-10T12:44:54;3.55;;;1.75;;
26806;SDS011;14380;49.910;6.792;2023-06-10T12:47:28;2.33;;;1.60;;
26806;SDS011;14380;49.910;6.792;2023-06-10T12:49:57;1.77;;;1.30;;
26806;SDS011;14380;49.910;6.792;2023-06-10T12:52:25;1.58;;;1.30;;
26806;SDS011;14380;49.910;6.792;2023-06-10T12:54:54;1.80;;;1.42;;
26806;SDS011;14380;49.910;6.792;2023-06-10T12:57:21;2.45;;;1.58;;
26806;SDS011;14380;49.910;6.792;2023-06-10T12:59:47;1.77;;;1.40;;
26806;SDS011;14380;49.910;6.792;2023-06-10T13:02:17;1.88;;;1.27;;
26806;SDS011;14380;49.910;6.792;2023-06-10T13:04:44;1.50;;;1.40;;
26806;SDS011;14380;49.910;6.792;2023-06-10T13:07:11;1.67;;;1.58;;
26806;SDS011;14380;49.910;6.792;2023-06-10T13:09:38;2.17;;;1.73;;
26806;SDS011;14380;49.910;6.792;2023-06-10T13:12:07;2.28;;;1.60;;
26806;SDS011;14380;49.910;6.792;2023-06-10T13:14:34;2.00;;;1.80;;
26806;SDS011;14380;49.910;6.792;2023-06-10T13:17:02;1.85;;;1.67;;
26806;SDS011;14380;49.910;6.792;2023-06-10T13:19:30;4.97;;;1.83;;
26806;SDS011;14380;49.910;6.792;2023-06-10T13:21:58;1.83;;;1.70;;
26806;SDS011;14380;49.910;6.792;2023-06-10T13:24:26;2.30;;;1.88;;
26806;SDS011;14380;49.910;6.792;2023-06-10T13:26:52;1.73;;;1.60;;
26806;SDS011;14380;49.910;6.792;2023-06-10T13:29:21;2.67;;;1.30;;
26806;SDS011;14380;49.910;6.792;2023-06-10T13:31:48;1.83;;;1.10;;
26806;SDS011;14380;49.910;6.792;2023-06-10T13:34:15;1.83;;;1.10;;
26806;SDS011;14380;49.910;6.792;2023-06-10T13:36:41;1.80;;;1.15;;
26806;SDS011;14380;49.910;6.792;2023-06-10T13:39:08;1.52;;;1.42;;
26806;SDS011;14380;49.910;6.792;2023-06-10T13:41:35;2.90;;;1.77;;
26806;SDS011;14380;49.910;6.792;2023-06-10T13:44:02;1.80;;;1.50;;
26806;SDS011;14380;49.910;6.792;2023-06-10T13:46:30;2.50;;;1.52;;
26806;SDS011;14380;49.910;6.792;2023-06-10T13:48:57;2.35;;;1.50;;
26806;SDS011;14380;49.910;6.792;2023-06-10T13:51:23;2.50;;;1.73;;
26806;SDS011;14380;49.910;6.792;2023-06-10T13:53:51;3.80;;;2.10;;
26806;SDS011;14380;49.910;6.792;2023-06-10T13:56:18;2.35;;;2.00;;
26806;SDS011;14380;49.910;6.792;2023-06-10T13:58:44;2.45;;;1.95;;
26806;SDS011;14380;49.910;6.792;2023-06-10T14:01:11;2.30;;;1.95;;
26806;SDS011;14380;49.910;6.792;2023-06-10T14:03:39;1.98;;;1.77;;
26806;SDS011;14380;49.910;6.792;2023-06-10T14:06:06;1.85;;;1.48;;
26806;SDS011;14380;49.910;6.792;2023-06-10T14:08:33;4.53;;;2.08;;
26806;SDS011;14380;49.910;6.792;2023-06-10T14:11:00;1.38;;;1.27;;
26806;SDS011;14380;49.910;6.792;2023-06-10T14:13:27;1.73;;;1.48;;
26806;SDS011;14380;49.910;6.792;2023-06-10T14:15:54;1.70;;;1.60;;
26806;SDS011;14380;49.910;6.792;2023-06-10T14:18:21;2.45;;;1.60;;
26806;SDS011;14380;49.910;6.792;2023-06-10T14:20:49;1.73;;;1.40;;
26806;SDS011;14380;49.910;6.792;2023-06-10T14:23:16;2.17;;;1.52;;
26806;SDS011;14380;49.910;6.792;2023-06-10T14:25:42;2.67;;;1.98;;
26806;SDS011;14380;49.910;6.792;2023-06-10T14:28:09;2.90;;;1.98;;
26806;SDS011;14380;49.910;6.792;2023-06-10T14:30:36;1.88;;;1.75;;
26806;SDS011;14380;49.910;6.792;2023-06-10T14:33:02;2.28;;;1.65;;
26806;SDS011;14380;49.910;6.792;2023-06-10T14:35:29;2.15;;;1.40;;
26806;SDS011;14380;49.910;6.792;2023-06-10T14:37:57;2.08;;;1.40;;
26806;SDS011;14380;49.910;6.792;2023-06-10T14:40:24;1.83;;;1.65;;
26806;SDS011;14380;49.910;6.792;2023-06-10T14:42:53;1.85;;;1.55;;
26806;SDS011;14380;49.910;6.792;2023-06-10T14:45:20;1.40;;;1.30;;
26806;SDS011;14380;49.910;6.792;2023-06-10T14:47:47;2.03;;;1.67;;
26806;SDS011;14380;49.910;6.792;2023-06-10T14:50:13;1.73;;;1.52;;
26806;SDS011;14380;49.910;6.792;2023-06-10T14:52:40;1.45;;;1.35;;
26806;SDS011;14380;49.910;6.792;2023-06-10T14:55:09;2.03;;;1.80;;